Time;durP1;ratioP1;P1;durP2;ratioP2;P2;SDS_P1;SDS_P2;PMS_P1;PMS_P2;Temp;Humidity;BMP_temperature;BMP_pressure;BME280_temperature;BME280_humidity;BME280_pressure;Samples;Min_cycle;Max_cycle;Signal;HPM_P1;HPM_P2
2022/03/22 00:00:09;;;;;;;20.92;5.53;;;;;;;1.77;81.65;101577.76;1713214;84;21643;-79
2022/03/22 00:03:15;;;;;;;20.43;5.50;;;;;;;1.70;81.97;101568.78;1712324;84;21256;-79
2022/03/22 00:06:22;;;;;;;20.52;6.33;;;;;;;1.66;82.45;101569.43;1713716;84;21196;-79
2022/03/22 00:09:29;;;;;;;18.32;5.87;;;;;;;1.65;82.51;101572.22;1713435;84;21751;-79
2022/03/22 00:12:36;;;;;;;18.20;6.15;;;;;;;1.61;82.69;101580.96;1712042;84;21256;-79
2022/03/22 00:15:42;;;;;;;19.52;6.22;;;;;;;1.57;82.77;101583.44;1712143;84;21207;-77
2022/03/22 00:18:50;;;;;;;18.15;5.37;;;;;;;1.53;82.68;101581.88;1713044;84;21188;-77
2022/03/22 00:21:56;;;;;;;18.60;5.65;;;;;;;1.48;82.86;101579.92;1712216;84;21862;-78
2022/03/22 00:25:02;;;;;;;19.35;5.97;;;;;;;1.41;82.86;101585.25;1712057;84;21208;-78
2022/03/22 00:28:08;;;;;;;17.95;5.80;;;;;;;1.35;83.32;101591.00;1713463;84;21244;-78
2022/03/22 00:31:15;;;;;;;19.85;5.70;;;;;;;1.31;83.55;101587.59;1712795;84;21240;-78
2022/03/22 00:34:21;;;;;;;24.60;8.55;;;;;;;1.27;83.83;101577.94;1713336;84;21240;-78
2022/03/22 00:37:29;;;;;;;21.05;5.97;;;;;;;1.23;83.87;101581.78;1713262;84;21755;-78
2022/03/22 00:40:36;;;;;;;23.07;6.37;;;;;;;1.18;83.98;101582.04;1690352;85;21239;-78
2022/03/22 00:43:42;;;;;;;18.30;6.72;;;;;;;1.14;84.44;101584.52;1689876;85;21334;-78
2022/03/22 00:46:50;;;;;;;18.92;5.72;;;;;;;1.10;84.76;101582.94;1689863;85;21196;-78
2022/03/22 00:49:56;;;;;;;22.10;5.70;;;;;;;1.07;84.90;101570.09;1689926;85;21200;-79
2022/03/22 00:53:01;;;;;;;17.75;5.85;;;;;;;1.02;85.24;101577.95;1689899;85;21229;-79
2022/03/22 00:56:08;;;;;;;16.62;5.47;;;;;;;1.01;85.47;101576.22;1688727;85;21200;-78
2022/03/22 01:02:42;;;;;;;18.35;6.20;;;;;;;0.94;85.50;101576.18;1688701;85;21224;-78
2022/03/22 01:05:52;;;;;;;23.22;5.70;;;;;;;0.90;85.77;101589.91;1689922;85;21196;-78
2022/03/22 01:08:57;;;;;;;22.98;6.53;;;;;;;0.87;85.91;101590.92;1689893;85;21521;-78
2022/03/22 01:11:57;;;;;;;16.25;6.45;;;;;;;0.83;86.06;101582.61;1689129;85;21231;-78
2022/03/22 01:14:50;;;;;;;22.20;5.87;;;;;;;0.80;86.23;101587.28;1688514;85;21221;-79
2022/03/22 01:17:37;;;;;;;16.37;5.30;;;;;;;0.77;86.33;101589.69;1689843;85;21805;-78
2022/03/22 01:20:31;;;;;;;23.42;6.10;;;;;;;0.75;86.57;101591.57;1689865;85;21203;-78
2022/03/22 01:23:19;;;;;;;23.00;6.58;;;;;;;0.74;86.75;101591.19;1689851;85;21251;-79
2022/03/22 01:26:12;;;;;;;23.00;6.42;;;;;;;0.71;86.77;101604.36;1689770;85;21247;-78
2022/03/22 01:29:16;;;;;;;;;;;;;;;0.71;87.04;101596.75;1692407;85;21208;-79
2022/03/22 01:32:22;;;;;;;22.58;8.23;;;;;;;0.68;87.06;101597.77;1689020;85;20214;-78
2022/03/22 01:35:30;;;;;;;17.05;6.60;;;;;;;0.65;87.29;101599.27;1689758;85;21779;-79
2022/03/22 01:38:37;;;;;;;14.30;5.67;;;;;;;0.63;87.33;101598.50;1690049;85;21346;-78
2022/03/22 01:41:43;;;;;;;18.37;6.55;;;;;;;0.60;87.41;101601.82;1689604;85;21259;-79
2022/03/22 01:44:43;;;;;;;23.07;6.42;;;;;;;0.59;87.66;101608.16;1689730;85;21319;-78
2022/03/22 01:47:49;;;;;;;23.98;6.30;;;;;;;0.59;87.74;101610.86;1689781;85;21251;-79
2022/03/22 01:50:55;;;;;;;22.13;6.67;;;;;;;0.55;87.70;101607.92;1689855;85;21264;-78
2022/03/22 01:54:01;;;;;;;21.42;6.28;;;;;;;0.50;87.74;101601.44;1689758;85;21317;-79
2022/03/22 01:57:09;;;;;;;16.32;6.33;;;;;;;0.47;87.90;101611.91;1689890;85;21751;-78
2022/03/22 02:00:18;;;;;;;17.70;6.35;;;;;;;0.44;87.97;101620.61;1689859;85;22565;-78
2022/03/22 02:06:40;;;;;;;16.95;6.00;;;;;;;0.35;88.29;101619.26;1686392;85;21215;-78
2022/03/22 02:09:47;;;;;;;21.97;6.40;;;;;;;0.34;88.47;101622.04;1690320;85;21787;-78
2022/03/22 02:12:52;;;;;;;22.87;7.60;;;;;;;0.31;88.76;101628.44;1688651;85;21251;-79
2022/03/22 02:16:05;;;;;;;18.45;6.25;;;;;;;0.28;89.05;101638.48;1690008;85;21172;-79
2022/03/22 02:19:02;;;;;;;22.70;6.08;;;;;;;0.28;89.40;101627.23;1689957;85;21231;-79
2022/03/22 02:22:13;;;;;;;16.57;5.03;;;;;;;0.28;89.60;101639.83;1690038;85;21283;-76
2022/03/22 02:25:18;;;;;;;14.78;5.83;;;;;;;0.27;89.50;101643.47;1669490;85;21204;-78
2022/03/22 02:28:27;;;;;;;21.02;6.40;;;;;;;0.24;89.71;101641.83;1689987;85;21767;-77
2022/03/22 02:31:34;;;;;;;29.50;7.35;;;;;;;0.22;89.73;101655.34;1690001;85;21231;-77
2022/03/22 02:34:43;;;;;;;27.45;7.67;;;;;;;0.20;89.93;101650.52;1689426;84;21933;-77
2022/03/22 02:37:49;;;;;;;19.25;7.03;;;;;;;0.18;89.97;101663.16;1690019;85;21814;-77
2022/03/22 02:40:56;;;;;;;26.82;7.22;;;;;;;0.17;90.02;101675.36;1687896;83;21248;-77
2022/03/22 02:44:01;;;;;;;21.23;6.53;;;;;;;0.15;90.22;101674.10;1681305;85;21256;-77
2022/03/22 02:47:07;;;;;;;26.07;7.10;;;;;;;0.14;90.35;101676.41;1682461;85;21225;-77
2022/03/22 02:50:14;;;;;;;19.87;6.90;;;;;;;0.10;90.40;101670.77;1681701;85;21244;-77
2022/03/22 02:53:20;;;;;;;27.82;6.78;;;;;;;0.07;90.48;101676.30;1682194;85;21300;-77
2022/03/22 02:56:25;;;;;;;20.35;7.60;;;;;;;0.05;90.52;101682.23;1682425;85;21310;-77
2022/03/22 02:59:31;;;;;;;23.42;7.28;;;;;;;0.02;90.58;101689.10;1681131;85;21216;-78
2022/03/22 03:02:37;;;;;;;23.45;7.17;;;;;;;-0.03;90.56;101690.67;1681103;85;21232;-78
2022/03/22 03:05:43;;;;;;;22.80;7.12;;;;;;;-0.07;91.03;101696.28;1681881;85;21228;-78
2022/03/22 03:08:50;;;;;;;25.75;8.50;;;;;;;-0.10;91.20;101701.79;1681123;84;21200;-79
2022/03/22 03:11:56;;;;;;;20.43;6.95;;;;;;;-0.12;91.40;101709.08;1682402;85;21216;-79
2022/03/22 03:15:02;;;;;;;24.15;8.23;;;;;;;-0.15;91.45;101714.59;1681123;85;21838;-78
2022/03/22 03:18:09;;;;;;;18.12;6.53;;;;;;;-0.17;91.67;101712.46;1682356;85;21224;-78
2022/03/22 03:21:15;;;;;;;23.42;7.50;;;;;;;-0.19;92.00;101707.13;1681537;85;21243;-78
2022/03/22 03:24:23;;;;;;;25.77;8.05;;;;;;;-0.19;92.19;101712.99;1681572;85;21209;-78
2022/03/22 03:27:30;;;;;;;28.17;8.23;;;;;;;-0.20;92.46;101713.47;1682351;85;21260;-78
2022/03/22 03:30:37;;;;;;;25.52;7.15;;;;;;;-0.22;92.72;101716.72;1682402;85;21322;-78
2022/03/22 03:33:44;;;;;;;26.85;9.58;;;;;;;-0.19;92.94;101721.06;1681880;85;21236;-78
2022/03/22 03:36:50;;;;;;;30.95;8.40;;;;;;;-0.16;93.19;101719.58;1681295;85;21283;-78
2022/03/22 03:39:55;;;;;;;22.42;8.53;;;;;;;-0.17;93.30;101721.40;1682414;85;21216;-78
2022/03/22 03:43:02;;;;;;;21.20;7.28;;;;;;;-0.13;93.54;101727.03;1705440;83;21240;-78
2022/03/22 03:49:31;;;;;;;24.45;8.15;;;;;;;-0.07;93.66;101729.90;1713487;84;21236;-78
2022/03/22 03:52:39;;;;;;;29.02;7.90;;;;;;;-0.03;93.70;101725.64;1713482;84;21200;-78
2022/03/22 03:55:45;;;;;;;25.00;8.05;;;;;;;0.03;93.67;101737.92;1713594;84;21184;-79
2022/03/22 03:58:52;;;;;;;27.13;7.72;;;;;;;0.10;93.50;101731.31;1713399;84;21717;-78
2022/03/22 04:01:58;;;;;;;32.20;8.78;;;;;;;0.11;93.07;101734.39;1713133;83;21264;-78
2022/03/22 04:05:06;;;;;;;26.42;7.83;;;;;;;0.10;92.99;101744.77;1712327;84;21204;-78
2022/03/22 04:08:12;;;;;;;24.50;8.90;;;;;;;0.10;92.85;101752.83;1713376;84;21501;-78
2022/03/22 04:11:16;;;;;;;32.30;9.15;;;;;;;0.09;92.87;101748.37;1713268;84;21196;-78
2022/03/22 04:14:23;;;;;;;24.87;8.38;;;;;;;0.10;92.95;101752.83;1711533;84;21806;-79
2022/03/22 04:17:29;;;;;;;20.52;7.90;;;;;;;0.12;92.86;101757.66;1711879;84;21271;-78
2022/03/22 04:20:37;;;;;;;21.50;7.33;;;;;;;0.16;93.00;101761.08;1713111;84;21263;-79
2022/03/22 04:23:44;;;;;;;28.02;7.53;;;;;;;0.19;92.91;101755.08;1712943;84;21216;-78
2022/03/22 04:26:51;;;;;;;34.53;9.05;;;;;;;0.23;93.04;101759.34;1712943;83;21208;-78
2022/03/22 04:33:21;;;;;;;21.57;8.28;;;;;;;0.38;92.99;101767.16;1711605;83;21208;-78
2022/03/22 04:36:28;;;;;;;23.67;7.72;;;;;;;0.48;92.90;101772.48;1712704;84;21346;-78
2022/03/22 04:39:36;;;;;;;25.97;7.53;;;;;;;0.59;92.68;101773.29;1713288;84;21384;-78
2022/03/22 04:42:42;;;;;;;27.65;7.92;;;;;;;0.67;92.32;101782.34;1712035;84;21864;-78
2022/03/22 04:45:48;;;;;;;28.12;8.13;;;;;;;0.76;92.07;101793.52;1712010;84;21200;-79
2022/03/22 04:48:53;;;;;;;25.15;7.83;;;;;;;0.87;91.85;101786.71;1713195;83;21204;-78
2022/03/22 04:58:38;;;;;;;31.00;8.88;;;;;;;1.18;90.63;101796.31;1713417;84;21228;-79
2022/03/22 05:01:45;;;;;;;28.77;8.53;;;;;;;1.27;90.22;101814.71;1713299;84;21341;-79
2022/03/22 05:04:51;;;;;;;26.40;7.80;;;;;;;1.36;89.78;101805.23;1712817;84;21208;-79
2022/03/22 05:07:58;;;;;;;27.67;8.23;;;;;;;1.46;89.15;101817.79;1712312;84;21290;-79
2022/03/22 05:10:59;;;;;;;26.97;8.20;;;;;;;1.54;88.68;101819.09;1711888;84;21252;-79
2022/03/22 05:14:05;;;;;;;;;;;;;;;1.64;88.40;101828.92;1715812;84;21240;-78
2022/03/22 05:17:11;;;;;;;21.17;7.87;;;;;;;1.73;87.61;101831.13;1711845;84;20247;-78
2022/03/22 05:20:18;;;;;;;22.15;7.42;;;;;;;1.81;87.19;101831.20;1713284;84;21244;-78
2022/03/22 05:23:24;;;;;;;30.45;8.03;;;;;;;1.87;86.37;101832.20;1712200;84;21244;-79
2022/03/22 05:26:30;;;;;;;29.60;8.48;;;;;;;1.96;86.31;101841.16;1711865;84;21192;-79
2022/03/22 05:29:37;;;;;;;21.05;7.55;;;;;;;2.05;85.45;101850.09;1713157;84;21803;-78
2022/03/22 05:32:43;;;;;;;30.10;8.23;;;;;;;2.14;85.16;101857.69;1713223;84;21200;-79
2022/03/22 05:35:49;;;;;;;25.48;7.78;;;;;;;2.24;84.42;101856.70;1712375;84;21283;-80
2022/03/22 05:38:56;;;;;;;17.62;7.22;;;;;;;2.32;83.79;101858.51;1711988;84;21282;-77
2022/03/22 05:42:04;;;;;;;22.90;7.72;;;;;;;2.37;83.08;101852.37;1713023;84;21365;-77
2022/03/22 05:45:11;;;;;;;21.30;7.22;;;;;;;2.45;82.57;101862.27;1710844;84;21857;-79
2022/03/22 05:48:19;;;;;;;21.12;8.20;;;;;;;2.55;82.20;101858.56;1713078;83;21220;-78
2022/03/22 05:51:26;;;;;;;26.62;8.03;;;;;;;2.65;81.83;101869.23;1712770;83;21326;-78
2022/03/22 05:54:32;;;;;;;21.68;6.75;;;;;;;2.74;81.21;101871.89;1712508;83;21821;-79
2022/03/22 05:57:31;;;;;;;24.37;7.95;;;;;;;2.82;80.54;101872.30;1713021;84;21764;-79
2022/03/22 06:00:24;;;;;;;21.02;7.15;;;;;;;2.92;79.75;101869.97;1713315;84;21754;-78
2022/03/22 06:03:30;;;;;;;22.48;7.22;;;;;;;2.98;79.33;101870.95;1712098;84;21354;-78
2022/03/22 06:06:36;;;;;;;23.50;7.42;;;;;;;3.05;78.97;101876.38;1712006;84;21192;-78
2022/03/22 06:09:41;;;;;;;20.95;7.00;;;;;;;3.14;78.00;101878.54;1711418;84;21312;-78
2022/03/22 06:12:45;;;;;;;23.75;7.80;;;;;;;3.22;77.71;101888.44;1703616;83;21235;-78
2022/03/22 06:15:52;;;;;;;;;;;;;;;3.31;77.60;101887.89;1711795;83;21518;-79
2022/03/22 06:18:58;;;;;;;22.67;7.00;;;;;;;3.46;77.53;101887.45;1709110;83;20248;-79
2022/03/22 06:22:07;;;;;;;23.25;7.12;;;;;;;3.57;76.60;101892.20;1708314;83;21325;-78
2022/03/22 06:25:13;;;;;;;25.55;7.42;;;;;;;3.66;76.19;101896.19;1709146;83;21298;-78
2022/03/22 06:28:18;;;;;;;25.50;7.55;;;;;;;3.73;75.76;101901.15;1708905;83;21276;-79
2022/03/22 06:31:24;;;;;;;23.57;6.62;;;;;;;3.87;75.71;101904.85;1712672;82;21192;-80
2022/03/22 06:34:32;;;;;;;25.40;7.25;;;;;;;4.05;75.13;101896.46;1687584;85;21250;-80
2022/03/22 06:37:38;;;;;;;17.85;6.62;;;;;;;4.20;74.00;101904.10;1664575;83;21538;-80
2022/03/22 06:40:44;;;;;;;16.48;6.08;;;;;;;4.33;72.58;101911.84;1653926;85;21198;-80
2022/03/22 06:43:49;;;;;;;16.77;5.65;;;;;;;4.41;71.57;101903.70;1643452;86;21209;-80
2022/03/22 06:46:56;;;;;;;17.50;5.50;;;;;;;4.46;71.41;101911.92;1687407;82;21192;-80
2022/03/22 06:50:01;;;;;;;18.37;6.15;;;;;;;4.59;70.02;101912.01;1656217;84;21221;-80
2022/03/22 06:53:08;;;;;;;23.18;7.53;;;;;;;4.69;69.91;101922.64;1657543;84;21193;-80
2022/03/22 06:56:14;;;;;;;15.45;5.17;;;;;;;4.82;68.32;101923.59;1647050;85;21207;-80
2022/03/22 06:59:20;;;;;;;12.47;4.92;;;;;;;4.94;66.80;101933.23;1647443;85;21338;-80
2022/03/22 07:02:27;;;;;;;23.32;6.28;;;;;;;5.02;66.10;101911.91;1625173;86;21215;-80
2022/03/22 07:05:33;;;;;;;12.63;4.92;;;;;;;5.16;66.68;101921.84;1654056;86;21216;-80
2022/03/22 07:08:40;;;;;;;25.88;4.90;;;;;;;5.34;66.67;101924.69;1654539;85;21411;-80
2022/03/22 07:11:55;;;;;;;18.42;6.10;;;;;;;5.49;63.64;101929.56;1634752;87;21191;-80
2022/03/22 07:14:55;;;;;;;13.38;4.67;;;;;;;5.54;60.42;101940.97;1653021;85;21765;-80
2022/03/22 07:18:02;;;;;;;10.32;4.95;;;;;;;5.62;59.09;101941.33;1662150;85;21221;-80
2022/03/22 07:21:08;;;;;;;10.40;4.30;;;;;;;5.73;56.44;101944.17;1671615;85;21212;-80
2022/03/22 07:24:14;;;;;;;12.28;4.28;;;;;;;5.84;55.63;101928.52;1632727;86;21795;-80
2022/03/22 07:27:20;;;;;;;16.70;3.90;;;;;;;6.00;54.99;101921.55;1652782;86;21257;-80
2022/03/22 07:30:25;;;;;;;15.48;3.30;;;;;;;6.18;54.21;101941.99;1645050;85;21491;-80
2022/03/22 07:33:31;;;;;;;16.67;3.72;;;;;;;6.36;50.66;101937.97;1644281;84;21295;-80
2022/03/22 07:36:37;;;;;;;12.37;3.27;;;;;;;6.46;50.39;101927.80;1662073;85;21845;-80
2022/03/22 07:39:39;;;;;;;12.73;3.15;;;;;;;6.57;48.71;101933.31;1656903;84;21699;-81
2022/03/22 07:42:45;;;;;;;10.08;3.17;;;;;;;6.60;48.44;101939.91;1660766;85;22296;-80
2022/03/22 07:45:54;;;;;;;10.90;2.90;;;;;;;6.68;48.09;101939.33;1662850;83;21571;-80
2022/03/22 07:52:57;;;;;;;8.80;3.12;;;;;;;6.77;46.24;101936.80;1646738;86;21393;-80
2022/03/22 07:55:17;;;;;;;9.83;2.72;;;;;;;6.88;45.61;101935.55;1685317;83;21251;-80
2022/03/22 07:58:24;;;;;;;11.43;2.90;;;;;;;6.99;45.76;101956.51;1686924;83;21239;-80
2022/03/22 08:01:30;;;;;;;7.20;2.72;;;;;;;7.05;45.32;101947.88;1646413;86;21208;-81
2022/03/22 08:04:36;;;;;;;6.55;2.80;;;;;;;7.09;45.61;101929.48;1649425;86;21188;-80
2022/03/22 08:07:42;;;;;;;9.08;2.77;;;;;;;7.16;45.37;101943.89;1686399;83;21207;-80
2022/03/22 08:10:49;;;;;;;8.95;2.72;;;;;;;7.21;46.12;101950.84;1689287;83;21203;-79
2022/03/22 08:13:59;;;;;;;11.65;2.70;;;;;;;7.28;45.42;101945.30;1680974;83;21207;-80
2022/03/22 08:17:02;;;;;;;10.43;3.15;;;;;;;7.35;45.33;101941.16;1635830;86;21319;-80
2022/03/22 08:20:07;;;;;;;14.75;3.47;;;;;;;7.35;45.60;101951.55;1661414;85;21263;-80
2022/03/22 08:23:15;;;;;;;10.48;3.30;;;;;;;7.38;45.28;101959.95;1656113;84;21299;-80
2022/03/22 08:26:23;;;;;;;8.38;3.08;;;;;;;7.50;44.94;101956.81;1656089;85;21365;-80
2022/03/22 08:29:30;;;;;;;9.18;2.83;;;;;;;7.55;44.07;101959.55;1632023;86;21259;-80
2022/03/22 08:32:36;;;;;;;21.65;3.80;;;;;;;7.56;43.68;101946.81;1686136;83;21207;-80
2022/03/22 08:35:45;;;;;;;12.07;2.60;;;;;;;7.47;43.83;101940.70;1649665;86;21224;-80
2022/03/22 08:38:52;;;;;;;15.75;2.80;;;;;;;7.46;43.22;101955.30;1650871;86;21204;-80
2022/03/22 08:41:57;;;;;;;10.18;3.40;;;;;;;7.52;42.54;101949.39;1687101;83;21246;-80
2022/03/22 08:45:04;;;;;;;8.23;2.70;;;;;;;7.51;43.06;101958.55;1647105;86;21200;-80
2022/03/22 08:48:12;;;;;;;28.45;3.47;;;;;;;7.44;42.79;101971.77;1657316;84;21534;-80
2022/03/22 08:51:19;;;;;;;12.63;3.37;;;;;;;7.38;42.68;101950.42;1672924;85;21810;-80
2022/03/22 08:54:27;;;;;;;8.20;3.00;;;;;;;7.43;43.35;101960.48;1644824;86;21350;-80
2022/03/22 08:57:32;;;;;;;11.22;2.83;;;;;;;7.42;43.30;101939.19;1671296;85;21497;-80
2022/03/22 09:00:41;;;;;;;6.58;2.75;;;;;;;7.46;43.31;101979.31;1669294;85;21228;-80
2022/03/22 09:06:07;;;;;;;9.35;2.75;;;;;;;7.50;43.73;101959.53;1680562;85;21163;-80
2022/03/22 09:06:55;;;;;;;10.40;2.92;;;;;;;7.55;42.57;101962.28;1670308;85;21252;-80
2022/03/22 09:10:01;;;;;;;8.30;2.35;;;;;;;7.63;42.19;101998.48;1672959;85;21259;-80
2022/03/22 09:13:07;;;;;;;13.72;2.92;;;;;;;7.69;41.77;101978.94;1670038;85;21690;-80
2022/03/22 09:16:15;;;;;;;7.85;2.45;;;;;;;7.73;41.80;101966.82;1674530;85;21818;-80
2022/03/22 09:19:21;;;;;;;5.95;2.42;;;;;;;7.75;40.58;101964.83;1679603;85;21642;-80
2022/03/22 09:22:29;;;;;;;8.05;1.87;;;;;;;7.71;41.36;101967.41;1673028;85;21554;-80
2022/03/22 09:25:36;;;;;;;3.65;2.05;;;;;;;7.79;41.07;101972.28;1672916;85;21338;-80
2022/03/22 09:28:43;;;;;;;7.78;2.33;;;;;;;7.88;38.65;101941.11;1675572;85;21204;-80
2022/03/22 09:31:49;;;;;;;6.78;1.72;;;;;;;7.91;38.68;101980.39;1673380;85;21189;-80
2022/03/22 09:34:58;;;;;;;3.70;2.00;;;;;;;7.92;39.06;101972.59;1679108;85;21756;-80
2022/03/22 09:38:04;;;;;;;12.63;2.58;;;;;;;7.94;38.39;101941.98;1678887;85;21424;-80
2022/03/22 09:41:10;;;;;;;4.92;1.87;;;;;;;7.94;39.08;101941.98;1674342;85;21188;-80
2022/03/22 09:44:16;;;;;;;5.62;1.60;;;;;;;8.00;39.38;101940.66;1673407;85;21211;-81
2022/03/22 09:47:21;;;;;;;4.95;1.70;;;;;;;8.06;39.99;101951.08;1673044;85;21216;-81
2022/03/22 09:53:52;;;;;;;6.50;2.30;;;;;;;8.31;39.60;101958.18;1666996;84;21231;-80
2022/03/22 09:57:00;;;;;;;5.20;1.90;;;;;;;8.31;38.56;101943.18;1665643;84;22081;-80
2022/03/22 10:00:08;;;;;;;7.08;2.25;;;;;;;8.27;38.29;101949.86;1666049;85;21799;-80
2022/03/22 10:03:14;;;;;;;5.35;2.20;;;;;;;8.27;39.36;101943.05;1661859;84;21696;-80
2022/03/22 10:06:22;;;;;;;8.25;2.40;;;;;;;8.29;39.23;101948.41;1654593;86;21350;-80
2022/03/22 10:09:44;;;;;;;5.60;2.00;;;;;;;8.32;40.16;101942.19;1642910;85;21239;-80
2022/03/22 10:12:50;;;;;;;6.12;2.12;;;;;;;8.41;39.41;101937.39;1654438;85;21251;-80
2022/03/22 10:15:56;;;;;;;5.30;2.20;;;;;;;8.51;39.53;101932.57;1666303;85;21196;-80
2022/03/22 10:19:02;;;;;;;4.62;2.12;;;;;;;8.57;38.74;101937.55;1669933;85;21270;-80
2022/03/22 10:22:13;;;;;;;5.35;2.27;;;;;;;8.53;39.20;101934.70;1674695;85;21901;-80
2022/03/22 10:25:18;;;;;;;7.95;2.37;;;;;;;8.56;39.92;101928.51;1672422;85;21562;-80
2022/03/22 10:28:23;;;;;;;10.10;1.92;;;;;;;8.66;39.00;101942.27;1677018;85;21775;-81
2022/03/22 10:31:41;;;;;;;9.70;2.37;;;;;;;8.71;38.73;101938.66;1660865;85;21220;-81
2022/03/22 10:34:48;;;;;;;6.62;2.42;;;;;;;8.72;38.23;101934.08;1676968;85;22302;-80
2022/03/22 10:38:01;;;;;;;4.28;2.22;;;;;;;8.72;38.11;101928.11;1625385;86;21635;-80
2022/03/22 10:41:12;;;;;;;6.35;2.22;;;;;;;8.72;38.25;101904.92;1672768;85;21303;-81
2022/03/22 10:44:20;;;;;;;9.48;2.30;;;;;;;8.73;38.11;101904.42;1680034;85;21219;-81
2022/03/22 10:47:34;;;;;;;6.70;2.67;;;;;;;8.75;38.39;101920.16;1679918;85;21231;-81
2022/03/22 10:50:46;;;;;;;5.40;2.15;;;;;;;8.84;38.10;101922.14;1677576;85;21234;-80
2022/03/22 10:53:52;;;;;;;9.18;2.25;;;;;;;8.86;37.99;101908.75;1675755;84;21234;-80
2022/03/22 10:57:01;;;;;;;6.15;1.82;;;;;;;8.84;38.12;101917.55;1662669;85;21247;-80
2022/03/22 11:00:12;;;;;;;5.37;2.43;;;;;;;8.84;37.52;101942.10;1630520;86;21261;-80
2022/03/22 11:03:19;;;;;;;5.75;2.30;;;;;;;8.90;37.83;101922.52;1632989;86;21859;-80
2022/03/22 11:06:28;;;;;;;7.22;2.77;;;;;;;8.93;38.18;101907.23;1666515;85;21230;-81
2022/03/22 11:09:34;;;;;;;4.67;1.57;;;;;;;8.90;37.91;101902.05;1647158;85;21215;-81
2022/03/22 11:12:39;;;;;;;5.85;2.25;;;;;;;8.87;36.92;101900.93;1647399;86;21206;-81
2022/03/22 11:15:47;;;;;;;5.30;2.12;;;;;;;8.85;37.57;101896.11;1661771;86;21215;-80
2022/03/22 11:18:54;;;;;;;5.00;1.75;;;;;;;8.90;37.81;101887.05;1664807;85;21240;-81
2022/03/22 11:22:00;;;;;;;5.40;1.90;;;;;;;9.00;36.96;101892.60;1666353;84;21841;-81
2022/03/22 11:25:18;;;;;;;3.42;1.70;;;;;;;9.08;36.17;101882.39;1656597;85;21218;-81
2022/03/22 11:28:29;;;;;;;3.87;1.75;;;;;;;9.16;35.30;101900.37;1651178;87;21303;-80
2022/03/22 11:31:36;;;;;;;4.83;1.90;;;;;;;9.15;35.90;101879.53;1654333;86;21212;-80
2022/03/22 11:34:43;;;;;;;3.52;1.72;;;;;;;9.17;35.31;101886.61;1693403;85;21204;-81
2022/03/22 11:37:43;;;;;;;6.25;2.00;;;;;;;9.26;35.09;101886.30;1690844;85;21407;-81
2022/03/22 11:44:35;;;;;;;3.30;1.62;;;;;;;9.41;34.07;101903.25;1659025;86;21425;-81
2022/03/22 11:47:54;;;;;;;6.05;1.57;;;;;;;9.40;33.18;101887.87;1638742;87;21194;-80
2022/03/22 11:50:58;;;;;;;4.62;1.60;;;;;;;9.36;32.15;101878.20;1665705;85;21239;-80
2022/03/22 11:54:03;;;;;;;5.30;1.82;;;;;;;9.37;32.74;101871.27;1664617;86;21255;-80
2022/03/22 11:57:10;;;;;;;5.05;1.60;;;;;;;9.40;31.90;101879.17;1660792;86;21200;-80
2022/03/22 12:00:16;;;;;;;4.47;1.40;;;;;;;9.39;32.54;101877.45;1689011;85;21836;-80
2022/03/22 12:03:28;;;;;;;4.08;1.80;;;;;;;9.40;32.81;101877.80;1688164;85;21229;-80
2022/03/22 12:06:37;;;;;;;2.10;1.37;;;;;;;9.45;33.28;101880.14;1689874;85;21203;-80
2022/03/22 12:09:48;;;;;;;7.75;1.67;;;;;;;9.52;31.85;101870.45;1688759;85;21219;-80
2022/03/22 12:12:58;;;;;;;6.58;2.08;;;;;;;9.55;31.21;101861.10;1688922;84;21241;-80
2022/03/22 12:16:07;;;;;;;5.65;1.75;;;;;;;9.52;30.85;101875.91;1709406;84;21196;-80
2022/03/22 12:19:14;;;;;;;;;;;;;;;9.53;30.88;101864.48;1688137;83;21198;-80
2022/03/22 12:22:20;;;;;;;3.85;1.55;;;;;;;9.53;31.62;101864.48;1692325;83;20253;-80
2022/03/22 12:25:27;;;;;;;5.67;1.60;;;;;;;9.50;30.98;101855.17;1670997;84;21298;-80
2022/03/22 12:28:20;;;;;;;7.03;1.47;;;;;;;9.52;30.87;101844.49;1698476;84;21775;-80
2022/03/22 12:31:26;;;;;;;4.73;1.30;;;;;;;9.61;30.88;101864.19;1692826;83;21263;-81
2022/03/22 12:34:34;;;;;;;5.67;1.65;;;;;;;9.60;31.41;101846.58;1660727;85;21210;-80
2022/03/22 12:37:41;;;;;;;6.70;1.52;;;;;;;9.64;31.47;101857.58;1652880;84;21208;-81
2022/03/22 12:40:48;;;;;;;6.17;1.77;;;;;;;9.66;30.21;101867.89;1689307;85;21816;-81
2022/03/22 12:43:54;;;;;;;6.92;1.95;;;;;;;9.69;29.81;101852.11;1680271;85;21172;-80
2022/03/22 12:46:59;;;;;;;3.50;1.50;;;;;;;9.70;29.79;101851.61;1689323;85;21237;-80
2022/03/22 12:50:06;;;;;;;5.60;1.80;;;;;;;9.70;30.21;101836.58;1675153;85;21219;-80
2022/03/22 12:53:11;;;;;;;3.42;1.52;;;;;;;9.70;30.46;101860.66;1673224;84;21196;-80
2022/03/22 12:56:24;;;;;;;4.70;1.75;;;;;;;9.62;30.36;101861.82;1691086;84;21269;-80
2022/03/22 12:59:32;;;;;;;9.20;2.02;;;;;;;9.63;29.99;101859.45;1629843;87;21819;-81
2022/03/22 13:02:37;;;;;;;3.35;1.37;;;;;;;9.56;30.28;101850.57;1640282;86;21819;-80
2022/03/22 13:05:54;;;;;;;2.33;1.42;;;;;;;9.54;30.20;101856.64;1653515;85;21212;-81
2022/03/22 13:12:22;;;;;;;4.15;2.17;;;;;;;9.55;29.86;101852.44;1646393;86;21247;-80
2022/03/22 13:15:28;;;;;;;3.62;1.60;;;;;;;9.50;30.01;101849.20;1661511;86;21829;-81
2022/03/22 13:18:36;;;;;;;3.87;1.50;;;;;;;9.51;29.68;101848.73;1632499;85;21228;-81
2022/03/22 13:21:44;;;;;;;3.17;1.47;;;;;;;9.56;28.84;101874.66;1632016;87;21428;-80
2022/03/22 13:24:51;;;;;;;4.10;1.45;;;;;;;9.56;29.25;101851.94;1656875;86;21239;-81
2022/03/22 13:28:09;;;;;;;5.20;1.40;;;;;;;9.60;29.34;101864.34;1645981;86;21267;-81
2022/03/22 13:31:15;;;;;;;3.12;1.52;;;;;;;9.58;29.06;101863.08;1643642;86;21223;-80
2022/03/22 13:34:33;;;;;;;3.85;1.70;;;;;;;9.54;29.01;101853.41;1651176;86;21842;-81
2022/03/22 13:37:57;;;;;;;3.70;1.75;;;;;;;9.53;28.75;101863.11;1684060;85;21200;-80
2022/03/22 13:41:06;;;;;;;5.28;1.72;;;;;;;9.49;28.98;101852.95;1634381;87;21855;-80
2022/03/22 13:44:14;;;;;;;5.28;1.85;;;;;;;9.42;28.58;101851.75;1625392;86;21258;-80
2022/03/22 13:47:39;;;;;;;5.12;1.85;;;;;;;9.37;29.21;101848.55;1627537;86;21232;-80
2022/03/22 13:50:48;;;;;;;6.03;1.82;;;;;;;9.39;29.02;101864.30;1632946;87;21826;-80
2022/03/22 13:53:57;;;;;;;4.72;2.12;;;;;;;9.35;28.95;101851.39;1635033;87;21237;-80
2022/03/22 13:57:14;;;;;;;3.77;1.87;;;;;;;9.32;29.80;101845.34;1645172;84;21326;-80
2022/03/22 14:00:22;;;;;;;4.35;1.60;;;;;;;9.32;29.89;101849.45;1717865;83;21228;-80
2022/03/22 14:03:28;;;;;;;2.80;1.80;;;;;;;9.30;29.49;101852.78;1717652;83;21243;-81
2022/03/22 14:06:35;;;;;;;5.50;1.98;;;;;;;9.28;29.69;101850.70;1718796;83;21232;-80
2022/03/22 14:09:42;;;;;;;4.55;1.82;;;;;;;9.23;29.82;101856.55;1719148;83;21251;-80
2022/03/22 14:12:50;;;;;;;4.85;1.70;;;;;;;9.19;30.41;101849.61;1717620;83;21220;-80
2022/03/22 14:15:56;;;;;;;5.75;2.02;;;;;;;9.15;30.04;101861.78;1718924;83;21799;-80
2022/03/22 14:19:01;;;;;;;5.47;2.17;;;;;;;9.12;30.28;101854.70;1716662;83;21228;-80
2022/03/22 14:22:09;;;;;;;5.40;2.15;;;;;;;9.09;30.57;101856.35;1717948;83;21311;-80
2022/03/22 14:25:18;;;;;;;4.62;1.77;;;;;;;9.03;30.85;101852.75;1716604;83;21267;-80
2022/03/22 14:28:18;;;;;;;4.17;1.65;;;;;;;9.00;31.03;101854.89;1718477;83;21200;-80
2022/03/22 14:31:23;;;;;;;4.65;1.45;;;;;;;8.98;31.03;101850.05;1718629;83;21267;-80
2022/03/22 14:37:54;;;;;;;3.67;1.67;;;;;;;8.85;31.31;101851.09;1718802;83;21207;-80
2022/03/22 14:41:24;;;;;;;4.62;1.75;;;;;;;8.79;31.38;101850.21;1718584;83;21255;-80
2022/03/22 14:44:12;;;;;;;7.58;1.90;;;;;;;8.73;31.64;101854.82;1718771;83;21235;-80
2022/03/22 14:47:20;;;;;;;5.78;1.62;;;;;;;8.67;31.19;101856.70;1718253;83;21295;-80
2022/03/22 14:50:28;;;;;;;4.12;1.60;;;;;;;8.62;31.31;101850.26;1718883;83;21247;-80
2022/03/22 15:00:25;;;;;;;5.35;2.10;;;;;;;8.51;30.56;101854.84;1713998;83;21201;-80
2022/03/22 15:03:36;;;;;;;2.92;1.35;;;;;;;8.44;30.88;101847.67;1714066;83;22009;-80
2022/03/22 15:06:43;;;;;;;3.90;1.77;;;;;;;8.39;30.94;101849.91;1713985;83;21795;-80
2022/03/22 15:09:49;;;;;;;5.17;1.77;;;;;;;8.30;31.42;101847.39;1713316;83;21773;-80
2022/03/22 15:12:52;;;;;;;5.47;2.40;;;;;;;8.22;31.94;101853.95;1713483;83;22103;-80
2022/03/22 15:15:59;;;;;;;4.53;2.10;;;;;;;8.12;32.09;101854.33;1713593;83;22291;-80